Terminal Aerodrome Forecast
Issued by NWS Louisville, KY

Home | Current Version | Previous Version | Text Only | Print | Product List | Glossary On
Versions: 1 2 3 4 5 6 7 8 9 10 11 12 13 14
045
FTUS43 KLMK 181151
TAFBWG
TAF
KBWG 181151Z 1812/1912 VRB04KT P6SM SCT180 WS020/25030KT
     FM181300 16012KT P6SM SCT180
     FM181700 21016G25KT P6SM BKN035
     FM182200 26015G32KT P6SM VCSH BKN035
     FM190100 29015G25KT P6SM FEW030=

USA.gov is the U.S. government's official web portal to all federal, state and local government web resources and services.